createdAt,value
2023-09-30T00:00:22.090Z,5.20
2023-09-30T00:01:16.061Z,6.10
2023-09-30T00:01:50.953Z,6.70
2023-09-30T00:02:24.928Z,5.90
2023-09-30T00:02:59.267Z,7.50
2023-09-30T00:03:33.244Z,8.30
2023-09-30T00:04:08.502Z,7.80
2023-09-30T00:04:42.180Z,9.90
2023-09-30T00:05:16.383Z,8.00
2023-09-30T00:05:49.716Z,8.30
2023-09-30T00:06:23.249Z,7.90
2023-09-30T00:06:56.740Z,8.60
2023-09-30T00:07:30.239Z,6.60
2023-09-30T00:08:04.544Z,8.40
2023-09-30T00:08:40.546Z,7.50
2023-09-30T00:09:14.864Z,8.50
2023-09-30T00:09:48.521Z,9.40
2023-09-30T00:10:22.002Z,8.60
2023-09-30T00:10:56.021Z,6.70
2023-09-30T00:11:29.306Z,8.80
2023-09-30T00:12:03.233Z,9.00
2023-09-30T00:12:38.837Z,7.90
2023-09-30T00:13:15.991Z,6.40
2023-09-30T00:13:52.680Z,6.70
2023-09-30T00:14:27.404Z,5.70
2023-09-30T00:15:00.873Z,5.60
2023-09-30T00:15:35.132Z,7.30
2023-09-30T00:16:08.514Z,8.30
2023-09-30T00:16:42.033Z,8.50
2023-09-30T00:17:16.444Z,6.60
2023-09-30T00:17:50.010Z,6.80
2023-09-30T00:18:23.495Z,6.40
2023-09-30T00:18:57.194Z,6.90
2023-09-30T00:19:30.930Z,8.90
2023-09-30T00:20:05.457Z,8.80
2023-09-30T00:20:38.853Z,6.90
2023-09-30T00:21:12.954Z,6.30
2023-09-30T00:21:46.520Z,7.30
2023-09-30T00:22:19.960Z,7.30
2023-09-30T00:22:53.262Z,11.30
2023-09-30T00:23:26.677Z,8.60
2023-09-30T00:24:00.227Z,6.70
2023-09-30T00:24:33.832Z,7.40
2023-09-30T00:25:07.887Z,9.70
2023-09-30T00:25:41.260Z,6.80
2023-09-30T00:26:15.591Z,10.90
2023-09-30T00:26:52.018Z,7.20
2023-09-30T00:27:25.566Z,8.00
2023-09-30T00:27:58.925Z,7.20
2023-09-30T00:28:32.217Z,7.70
2023-09-30T00:29:06.425Z,7.70
2023-09-30T00:29:40.021Z,7.30
2023-09-30T00:30:13.764Z,10.10
2023-09-30T00:30:49.079Z,8.80
2023-09-30T00:31:22.888Z,7.40
2023-09-30T00:31:56.269Z,10.00
2023-09-30T00:32:29.930Z,7.40
2023-09-30T00:33:04.429Z,7.00
2023-09-30T00:33:38.438Z,8.10
2023-09-30T00:34:11.891Z,10.20
2023-09-30T00:34:46.110Z,7.20
2023-09-30T00:35:19.460Z,10.20
2023-09-30T00:35:52.858Z,8.90
2023-09-30T00:36:26.507Z,8.80
2023-09-30T00:36:59.790Z,6.80
2023-09-30T00:37:33.887Z,8.60
2023-09-30T00:38:07.277Z,6.90
2023-09-30T00:38:41.440Z,8.10
2023-09-30T00:39:14.900Z,8.70
2023-09-30T00:39:48.387Z,9.30
2023-09-30T00:40:21.718Z,8.30
2023-09-30T00:40:55.188Z,9.10
2023-09-30T00:41:28.652Z,8.70
2023-09-30T00:42:02.040Z,8.70
2023-09-30T00:42:35.590Z,7.50
2023-09-30T00:43:19.794Z,8.00
2023-09-30T00:43:53.212Z,6.80
2023-09-30T00:44:28.155Z,7.30
2023-09-30T00:45:06.369Z,7.40
2023-09-30T00:45:40.179Z,7.70
2023-09-30T00:46:49.577Z,8.20
2023-09-30T00:47:24.307Z,8.10
2023-09-30T00:47:58.050Z,7.60
2023-09-30T00:48:31.876Z,7.90
2023-09-30T00:49:05.547Z,7.60
2023-09-30T00:49:40.009Z,8.40
2023-09-30T00:50:14.812Z,7.20
2023-09-30T00:50:48.289Z,12.40
2023-09-30T00:51:22.658Z,7.90
2023-09-30T00:51:57.059Z,8.30
2023-09-30T00:52:34.552Z,8.90
2023-09-30T00:53:08.966Z,9.40
2023-09-30T00:53:45.709Z,7.80
2023-09-30T00:54:20.501Z,7.90
2023-09-30T00:54:56.392Z,8.80
2023-09-30T00:55:29.980Z,10.00
2023-09-30T00:56:03.927Z,8.30
2023-09-30T00:56:44.780Z,9.20
2023-09-30T00:57:21.023Z,6.70
2023-09-30T00:57:54.930Z,8.30
2023-09-30T00:58:30.325Z,8.90
2023-09-30T00:59:05.397Z,7.10
2023-09-30T00:59:40.662Z,9.00
2023-09-30T01:00:14.794Z,8.50
2023-09-30T01:00:48.676Z,8.90
2023-09-30T01:01:23.591Z,8.30
2023-09-30T01:02:00.380Z,8.60
2023-09-30T01:02:36.292Z,7.90
2023-09-30T01:03:13.419Z,7.80
2023-09-30T01:03:48.258Z,7.60
2023-09-30T01:04:22.641Z,11.20
2023-09-30T01:04:57.295Z,8.80
2023-09-30T01:05:31.839Z,8.90
2023-09-30T01:06:05.468Z,9.60
2023-09-30T01:06:39.465Z,7.20
2023-09-30T01:07:12.910Z,8.40
2023-09-30T01:07:46.397Z,7.60
2023-09-30T01:08:21.369Z,8.20
2023-09-30T01:08:55.241Z,10.30
2023-09-30T01:09:29.265Z,9.60
2023-09-30T01:10:03.896Z,8.80
2023-09-30T01:10:37.360Z,8.90
2023-09-30T01:11:10.861Z,7.10
2023-09-30T01:11:45.765Z,9.80
2023-09-30T01:12:19.367Z,8.40
2023-09-30T01:12:52.797Z,8.50
2023-09-30T01:13:34.341Z,8.20
2023-09-30T01:14:41.921Z,9.10
2023-09-30T01:15:15.738Z,8.00
2023-09-30T01:15:49.148Z,11.10
2023-09-30T01:16:23.127Z,8.10
2023-09-30T01:16:57.311Z,8.70
2023-09-30T01:17:30.926Z,9.00
2023-09-30T01:18:05.426Z,8.70
2023-09-30T01:18:41.521Z,8.30
2023-09-30T01:19:15.125Z,10.50
2023-09-30T01:19:48.583Z,8.80
2023-09-30T01:20:23.565Z,8.80
2023-09-30T01:20:57.980Z,8.30
2023-09-30T01:21:35.758Z,9.00
2023-09-30T01:22:11.290Z,8.90
2023-09-30T01:22:46.800Z,8.40
2023-09-30T01:23:20.690Z,8.80
2023-09-30T01:23:54.061Z,10.10
2023-09-30T01:24:28.605Z,8.00
2023-09-30T01:25:01.988Z,9.20
2023-09-30T01:25:36.401Z,8.80
2023-09-30T01:26:14.076Z,8.30
2023-09-30T01:26:47.422Z,11.00
2023-09-30T01:27:21.053Z,9.40
2023-09-30T01:27:55.309Z,11.20
2023-09-30T01:28:28.626Z,9.00
2023-09-30T01:29:01.912Z,8.30
2023-09-30T01:29:36.290Z,8.70
2023-09-30T01:30:12.471Z,9.20
2023-09-30T01:30:46.638Z,9.50
2023-09-30T01:31:20.044Z,8.80
2023-09-30T01:31:53.646Z,8.20
2023-09-30T01:32:27.348Z,11.00
2023-09-30T01:33:01.899Z,9.60
2023-09-30T01:33:35.661Z,8.20
2023-09-30T01:34:12.100Z,9.20
2023-09-30T01:34:45.596Z,11.10
2023-09-30T01:35:19.008Z,12.30
2023-09-30T01:35:52.642Z,9.30
2023-09-30T01:36:26.131Z,8.30
2023-09-30T01:36:59.592Z,10.20
2023-09-30T01:37:33.446Z,8.30
2023-09-30T01:38:06.931Z,7.70
2023-09-30T01:38:40.412Z,8.20
2023-09-30T01:39:15.827Z,9.90
2023-09-30T01:39:51.677Z,9.60
2023-09-30T01:40:25.056Z,7.80
2023-09-30T01:41:00.892Z,8.00
2023-09-30T01:41:34.977Z,8.40
2023-09-30T01:42:08.388Z,8.70
2023-09-30T01:42:42.063Z,8.40
2023-09-30T01:43:16.593Z,8.70
2023-09-30T01:43:50.384Z,7.50
2023-09-30T01:44:23.780Z,7.80
2023-09-30T01:44:58.308Z,8.90
2023-09-30T01:45:31.776Z,10.50
2023-09-30T01:46:06.801Z,8.70
2023-09-30T01:46:40.825Z,8.60
2023-09-30T01:47:14.239Z,9.50
2023-09-30T01:47:47.813Z,8.70
2023-09-30T01:48:21.381Z,10.40
2023-09-30T01:48:54.883Z,7.90
2023-09-30T01:51:18.054Z,8.60
2023-09-30T01:51:51.701Z,9.60
2023-09-30T01:52:25.611Z,10.00
2023-09-30T01:52:59.068Z,10.60
2023-09-30T01:53:32.592Z,8.70
2023-09-30T01:54:06.258Z,9.60
2023-09-30T01:54:39.929Z,8.60
2023-09-30T01:55:13.662Z,8.50
2023-09-30T01:55:47.170Z,9.70
2023-09-30T01:56:21.468Z,9.70
2023-09-30T01:56:55.276Z,9.10
2023-09-30T01:57:28.700Z,8.90
2023-09-30T01:58:02.208Z,8.00
2023-09-30T01:58:35.811Z,7.40
2023-09-30T01:59:09.211Z,9.00
2023-09-30T01:59:42.673Z,8.10
2023-09-30T02:00:16.138Z,8.60
2023-09-30T02:00:49.632Z,9.20
2023-09-30T02:01:23.609Z,9.90
2023-09-30T02:01:58.221Z,10.50
2023-09-30T02:02:32.457Z,9.90
2023-09-30T02:03:06.225Z,7.90
2023-09-30T02:03:39.912Z,9.90
2023-09-30T02:04:16.851Z,9.90
2023-09-30T02:04:50.347Z,10.20
2023-09-30T02:05:24.718Z,9.80
2023-09-30T02:06:01.029Z,12.40
2023-09-30T02:06:35.129Z,11.00
2023-09-30T02:07:08.744Z,10.60
2023-09-30T02:07:42.329Z,10.30
2023-09-30T02:08:16.975Z,11.20
2023-09-30T02:08:50.728Z,9.90
2023-09-30T02:09:24.403Z,9.30
2023-09-30T02:09:59.129Z,9.90
2023-09-30T02:10:34.698Z,11.70
2023-09-30T02:11:08.310Z,8.80
2023-09-30T02:11:42.802Z,9.50
2023-09-30T02:12:16.465Z,11.10
2023-09-30T02:12:50.766Z,11.70
2023-09-30T02:13:24.368Z,9.00
2023-09-30T02:13:58.207Z,8.50
2023-09-30T02:14:33.578Z,8.60
2023-09-30T02:15:08.633Z,12.50
2023-09-30T02:15:45.266Z,9.20
2023-09-30T02:16:18.823Z,10.80
2023-09-30T02:16:52.315Z,11.30
2023-09-30T02:17:26.066Z,9.70
2023-09-30T02:18:01.796Z,8.70
2023-09-30T02:18:35.653Z,11.70
2023-09-30T02:19:12.445Z,10.10
2023-09-30T02:19:46.424Z,9.70
2023-09-30T02:20:28.257Z,12.90
2023-09-30T02:21:01.806Z,11.00
2023-09-30T02:21:37.138Z,10.70
2023-09-30T02:22:10.568Z,13.50
2023-09-30T02:22:45.246Z,11.40
2023-09-30T02:23:20.319Z,11.80
2023-09-30T02:23:56.788Z,12.10
2023-09-30T02:24:30.620Z,11.50
2023-09-30T02:25:08.672Z,10.30
2023-09-30T02:25:43.341Z,9.80
2023-09-30T02:26:17.246Z,9.90
2023-09-30T02:26:50.712Z,10.60
2023-09-30T02:27:24.172Z,9.60
2023-09-30T02:27:58.550Z,11.20
2023-09-30T02:28:33.763Z,11.10
2023-09-30T02:29:09.034Z,11.20
2023-09-30T02:29:42.712Z,10.20
2023-09-30T02:30:17.615Z,9.60
2023-09-30T02:30:51.471Z,12.90
2023-09-30T02:31:25.400Z,10.40
2023-09-30T02:31:59.694Z,9.70
2023-09-30T02:32:34.955Z,10.00
2023-09-30T02:33:08.686Z,10.50
2023-09-30T02:33:42.607Z,12.20
2023-09-30T02:34:16.418Z,10.10
2023-09-30T02:34:49.935Z,11.70
2023-09-30T02:35:23.579Z,9.70
2023-09-30T02:35:57.213Z,11.00
2023-09-30T02:36:30.932Z,11.10
2023-09-30T02:37:04.623Z,12.20
2023-09-30T02:37:38.621Z,11.50
2023-09-30T02:38:12.544Z,13.20
2023-09-30T02:38:47.786Z,11.60
2023-09-30T02:39:21.358Z,12.80
2023-09-30T02:39:55.008Z,12.10
2023-09-30T02:40:28.796Z,12.50
2023-09-30T02:41:04.264Z,12.80
2023-09-30T02:41:38.923Z,13.30
2023-09-30T02:42:12.516Z,13.10
2023-09-30T02:42:46.005Z,12.40
2023-09-30T02:43:19.390Z,11.80
2023-09-30T02:43:52.757Z,11.60
2023-09-30T02:44:26.193Z,12.90
2023-09-30T02:45:02.853Z,11.40
2023-09-30T02:45:39.536Z,10.10
2023-09-30T02:46:13.940Z,10.90
2023-09-30T02:46:47.468Z,14.20
2023-09-30T02:47:21.608Z,11.10
2023-09-30T02:47:55.186Z,11.80
2023-09-30T02:48:29.306Z,11.10
2023-09-30T02:49:03.806Z,10.40
2023-09-30T02:49:38.401Z,13.30
2023-09-30T02:50:17.829Z,11.40
2023-09-30T02:50:51.200Z,10.80
2023-09-30T02:51:24.943Z,11.30
2023-09-30T02:51:58.362Z,10.10
2023-09-30T02:52:32.422Z,11.60
2023-09-30T02:53:05.876Z,11.50
2023-09-30T02:53:40.007Z,10.50
2023-09-30T02:54:16.835Z,10.20
2023-09-30T02:54:50.574Z,10.90
2023-09-30T02:55:24.059Z,13.70
2023-09-30T02:56:01.315Z,11.50
2023-09-30T02:56:35.264Z,11.80
2023-09-30T02:57:10.920Z,12.10
2023-09-30T02:57:45.482Z,10.70
2023-09-30T02:58:19.651Z,10.00
2023-09-30T02:58:54.250Z,12.60
2023-09-30T02:59:28.829Z,14.30
2023-09-30T03:00:13.976Z,14.10
2023-09-30T03:00:50.937Z,13.80
2023-09-30T03:01:25.116Z,13.10
2023-09-30T03:01:58.909Z,13.70
2023-09-30T03:02:32.533Z,15.10
2023-09-30T03:03:06.117Z,13.60
2023-09-30T03:03:41.227Z,14.40
2023-09-30T03:04:14.751Z,17.10
2023-09-30T03:04:49.154Z,15.10
2023-09-30T03:05:24.778Z,14.20
2023-09-30T03:05:58.832Z,14.70
2023-09-30T03:06:32.825Z,13.90
2023-09-30T03:07:06.728Z,14.10
2023-09-30T03:07:40.216Z,13.80
2023-09-30T03:08:13.733Z,14.80
2023-09-30T03:08:48.201Z,16.20
2023-09-30T03:09:22.184Z,15.70
2023-09-30T03:09:55.638Z,14.10
2023-09-30T03:10:29.117Z,14.10
2023-09-30T03:11:03.466Z,12.70
2023-09-30T03:11:37.042Z,12.60
2023-09-30T03:12:10.706Z,13.80
2023-09-30T03:12:44.228Z,15.40
2023-09-30T03:13:19.870Z,14.10
2023-09-30T03:13:53.826Z,14.80
2023-09-30T03:14:27.329Z,14.70
2023-09-30T03:15:00.742Z,13.60
2023-09-30T03:15:34.886Z,15.80
2023-09-30T03:16:08.297Z,15.30
2023-09-30T03:16:42.840Z,18.80
2023-09-30T03:17:16.310Z,16.10
2023-09-30T03:17:53.437Z,16.70
2023-09-30T03:18:28.056Z,17.90
2023-09-30T03:19:01.530Z,18.40
2023-09-30T03:19:35.109Z,18.30
2023-09-30T03:20:13.387Z,16.40
2023-09-30T03:20:46.963Z,17.40
2023-09-30T03:21:21.340Z,17.20
2023-09-30T03:21:54.727Z,15.80
2023-09-30T03:22:28.499Z,19.60
2023-09-30T03:23:03.452Z,18.40
2023-09-30T03:23:36.959Z,21.00
2023-09-30T03:24:10.873Z,16.80
2023-09-30T03:24:44.419Z,14.50
2023-09-30T03:25:20.001Z,19.60
2023-09-30T03:25:53.337Z,17.80
2023-09-30T03:26:26.713Z,18.70
2023-09-30T03:27:00.043Z,17.40
2023-09-30T03:27:34.986Z,17.70
2023-09-30T03:28:08.985Z,18.40
2023-09-30T03:28:42.315Z,18.60
2023-09-30T03:29:15.666Z,17.90
2023-09-30T03:29:49.007Z,21.90
2023-09-30T03:30:22.593Z,17.20
2023-09-30T03:30:58.007Z,17.60
2023-09-30T03:31:31.677Z,21.30
2023-09-30T03:32:05.558Z,19.00
2023-09-30T03:32:39.829Z,18.30
2023-09-30T03:33:13.632Z,21.50
2023-09-30T03:33:48.101Z,18.40
2023-09-30T03:34:21.825Z,18.10
2023-09-30T03:34:55.219Z,18.90
2023-09-30T03:35:28.555Z,16.80
2023-09-30T03:36:02.042Z,19.80
2023-09-30T03:36:37.087Z,19.40
2023-09-30T16:31:01.150Z,46.10
2023-09-30T16:31:34.774Z,44.00
2023-09-30T16:32:09.279Z,47.90
2023-09-30T16:32:44.714Z,43.80
2023-09-30T16:33:25.773Z,46.20
2023-09-30T16:34:00.905Z,45.60
2023-09-30T16:34:34.829Z,43.10
2023-09-30T16:35:09.474Z,43.20
2023-09-30T16:35:42.959Z,44.40
2023-09-30T16:36:16.590Z,44.60
2023-09-30T16:37:39.757Z,40.60
2023-09-30T16:38:13.074Z,69.70
2023-09-30T16:38:46.871Z,89.40
2023-09-30T16:39:20.387Z,125.10
2023-09-30T16:39:53.743Z,166.10
2023-09-30T16:40:27.347Z,187.30
2023-09-30T16:41:00.948Z,204.20
2023-09-30T16:41:34.517Z,253.30
2023-09-30T16:42:07.875Z,288.10
2023-09-30T16:42:41.266Z,312.50
2023-09-30T16:43:14.979Z,328.70
2023-09-30T16:43:48.270Z,353.00
2023-09-30T16:44:23.116Z,372.00
2023-09-30T16:44:56.670Z,390.90
2023-09-30T16:45:30.236Z,400.00
2023-09-30T16:46:06.098Z,403.60
2023-09-30T16:46:41.343Z,397.90
2023-09-30T16:47:15.324Z,410.80
2023-09-30T16:47:48.846Z,391.90
2023-09-30T16:48:22.303Z,382.00
2023-09-30T16:48:55.695Z,366.30
2023-09-30T16:49:29.193Z,363.40
2023-09-30T16:50:02.857Z,346.70
2023-09-30T16:50:36.784Z,347.80
2023-09-30T16:51:11.460Z,339.40
2023-09-30T16:51:45.396Z,327.10
2023-09-30T16:52:18.770Z,328.00
2023-09-30T16:52:52.176Z,309.50
2023-09-30T16:53:26.186Z,310.00
2023-09-30T16:53:59.629Z,300.80
2023-09-30T16:54:33.200Z,298.00
2023-09-30T16:55:08.899Z,304.50
2023-09-30T16:55:42.236Z,295.50
2023-09-30T17:42:23.686Z,8.60
2023-09-30T17:42:57.486Z,8.40
2023-09-30T17:43:30.993Z,10.00
2023-09-30T17:44:04.510Z,9.70
2023-09-30T17:44:38.395Z,7.50
2023-09-30T17:45:59.935Z,7.50
2023-09-30T17:46:34.427Z,9.50
2023-09-30T17:47:08.518Z,7.40
2023-09-30T17:47:43.723Z,7.80
2023-09-30T17:48:18.234Z,8.10
2023-09-30T17:49:39.921Z,7.70
2023-09-30T17:50:13.615Z,9.30
2023-09-30T17:50:47.709Z,8.90
2023-09-30T17:51:22.133Z,8.30
2023-09-30T17:51:57.250Z,8.10
2023-09-30T17:53:19.857Z,7.80
2023-09-30T17:53:54.356Z,8.80
2023-09-30T17:54:28.140Z,7.90
2023-09-30T17:55:02.234Z,11.50
2023-09-30T17:55:40.203Z,9.90
2023-09-30T17:57:03.015Z,8.80
2023-09-30T17:57:37.162Z,7.50
2023-09-30T17:58:16.230Z,7.30
2023-09-30T17:58:50.813Z,10.50
2023-09-30T17:59:25.080Z,7.70
2023-09-30T18:00:53.890Z,8.80
2023-09-30T18:01:28.032Z,7.60
2023-09-30T18:02:02.603Z,8.00
2023-09-30T18:02:40.817Z,8.80
2023-09-30T18:03:15.557Z,9.80
2023-09-30T18:04:35.027Z,10.00
2023-09-30T18:05:09.842Z,8.80
2023-09-30T18:05:44.733Z,9.70
2023-09-30T18:06:18.718Z,9.60
2023-09-30T18:06:52.830Z,8.80
2023-09-30T18:08:17.815Z,8.90
2023-09-30T18:08:52.140Z,8.70
2023-09-30T18:09:26.190Z,7.70
2023-09-30T18:10:00.237Z,8.20
2023-09-30T18:10:34.897Z,8.80
2023-09-30T18:11:54.584Z,9.60
2023-09-30T18:12:28.309Z,9.10
2023-09-30T18:13:02.961Z,8.90
2023-09-30T18:13:37.424Z,7.20
2023-09-30T18:14:17.511Z,8.10
2023-09-30T18:15:34.174Z,7.60
2023-09-30T18:16:08.913Z,7.90
2023-09-30T18:16:44.571Z,7.20
2023-09-30T18:17:21.034Z,8.20
2023-09-30T18:18:09.359Z,8.90
2023-09-30T18:19:29.637Z,7.40
2023-09-30T18:20:06.619Z,7.90
2023-09-30T18:20:41.834Z,7.50
2023-09-30T18:21:15.474Z,9.20
2023-09-30T18:21:49.428Z,6.90
2023-09-30T18:23:11.980Z,8.00
2023-09-30T18:23:48.005Z,9.90
2023-09-30T18:24:22.269Z,8.20
2023-09-30T18:24:56.466Z,10.20
2023-09-30T18:25:35.410Z,7.30
2023-09-30T18:26:51.583Z,8.70
2023-09-30T18:27:25.354Z,8.20
2023-09-30T18:27:58.958Z,9.20
2023-09-30T18:28:33.194Z,7.30
2023-09-30T18:29:06.930Z,8.60
2023-09-30T18:30:32.429Z,7.60
2023-09-30T18:31:06.397Z,8.00
2023-09-30T18:31:40.408Z,8.80
2023-09-30T18:32:15.240Z,8.10
2023-09-30T18:32:48.851Z,9.10
2023-09-30T18:34:13.682Z,11.20
2023-09-30T18:34:47.532Z,8.50
2023-09-30T18:35:21.348Z,8.50
2023-09-30T18:35:55.351Z,7.40
2023-09-30T18:36:29.351Z,9.70
2023-09-30T18:37:53.625Z,8.90
2023-09-30T18:38:28.331Z,9.00
2023-09-30T18:39:15.340Z,7.70
2023-09-30T18:39:56.498Z,8.60
2023-09-30T18:40:34.324Z,7.40
2023-09-30T18:41:53.009Z,8.20
2023-09-30T18:42:27.565Z,7.40
2023-09-30T18:43:07.283Z,9.00
2023-09-30T18:43:41.446Z,7.10
2023-09-30T18:44:15.566Z,9.00
2023-09-30T18:45:34.975Z,7.30
2023-09-30T18:46:13.696Z,8.20
2023-09-30T18:46:47.952Z,8.30
2023-09-30T18:47:21.757Z,6.50
2023-09-30T18:47:56.355Z,8.40
2023-09-30T18:49:16.298Z,7.30
2023-09-30T18:49:53.013Z,7.70
2023-09-30T18:50:26.726Z,9.10
2023-09-30T18:51:00.711Z,7.10
2023-09-30T18:51:34.831Z,7.50
2023-09-30T18:52:58.037Z,7.60
2023-09-30T18:53:32.066Z,7.60
2023-09-30T18:54:10.880Z,9.70
2023-09-30T18:54:46.101Z,8.50
2023-09-30T18:55:19.569Z,7.10
2023-09-30T18:56:41.830Z,7.20
2023-09-30T18:57:16.220Z,7.90
2023-09-30T18:57:51.114Z,9.80
2023-09-30T18:58:24.897Z,10.50
2023-09-30T18:58:58.895Z,9.50
2023-09-30T19:00:22.368Z,6.50
2023-09-30T19:00:56.532Z,8.60
2023-09-30T19:01:30.384Z,8.30
2023-09-30T19:02:05.228Z,7.60
2023-09-30T19:02:39.008Z,8.10
2023-09-30T19:04:21.767Z,7.10
2023-09-30T19:04:57.091Z,8.00
2023-09-30T19:05:32.122Z,7.20
2023-09-30T19:06:05.732Z,8.40
2023-09-30T19:07:41.407Z,8.10
2023-09-30T19:08:17.141Z,7.20
2023-09-30T19:08:51.142Z,7.60
2023-09-30T19:09:25.246Z,6.90
2023-09-30T19:09:59.845Z,7.80
2023-09-30T19:11:21.334Z,8.30
2023-09-30T19:11:55.352Z,7.80
2023-09-30T19:12:30.233Z,7.00
2023-09-30T19:13:04.732Z,7.10
2023-09-30T19:13:41.499Z,6.80
2023-09-30T19:15:03.047Z,7.80
2023-09-30T19:15:36.661Z,8.40
2023-09-30T19:16:10.890Z,7.90
2023-09-30T19:16:45.053Z,9.20
2023-09-30T19:17:21.761Z,6.20
2023-09-30T19:18:42.907Z,8.70
2023-09-30T19:19:19.664Z,6.80
2023-09-30T19:19:53.486Z,6.90
2023-09-30T19:20:30.383Z,8.40
2023-09-30T19:21:06.302Z,7.00
2023-09-30T19:22:24.614Z,8.80
2023-09-30T19:22:58.492Z,7.20
2023-09-30T19:23:32.930Z,7.90
2023-09-30T19:24:07.129Z,7.40
2023-09-30T19:24:41.007Z,6.90
2023-09-30T19:26:13.038Z,6.50
2023-09-30T19:26:49.641Z,6.70
2023-09-30T19:27:23.527Z,7.00
2023-09-30T19:27:58.851Z,6.50
2023-09-30T19:28:33.379Z,6.60
2023-09-30T19:29:57.994Z,7.00
2023-09-30T19:30:31.642Z,7.00
2023-09-30T19:31:06.970Z,8.50
2023-09-30T19:31:40.816Z,7.00
2023-09-30T19:32:14.653Z,7.60
2023-09-30T19:33:39.211Z,6.00
2023-09-30T19:34:13.454Z,6.80
2023-09-30T19:34:47.308Z,9.20
2023-09-30T19:35:21.102Z,6.60
2023-09-30T19:35:55.121Z,7.00
2023-09-30T19:37:20.209Z,6.50
2023-09-30T19:37:54.104Z,6.70
2023-09-30T19:38:28.095Z,6.70
2023-09-30T19:39:01.893Z,6.70
2023-09-30T19:39:35.475Z,6.40
2023-09-30T19:41:00.489Z,6.80
2023-09-30T19:41:39.762Z,7.90
2023-09-30T19:42:15.585Z,7.30
2023-09-30T19:42:49.433Z,7.50
2023-09-30T19:43:23.282Z,6.20
2023-09-30T19:44:50.009Z,7.50
2023-09-30T19:45:24.847Z,6.10
2023-09-30T19:46:36.734Z,6.80
2023-09-30T19:48:21.106Z,6.80
2023-09-30T19:48:56.510Z,6.40
2023-09-30T19:49:31.775Z,7.60
2023-09-30T19:50:07.170Z,7.90
2023-09-30T19:50:40.740Z,6.60
2023-09-30T19:52:03.542Z,6.90
2023-09-30T19:52:40.220Z,6.30
2023-09-30T19:53:14.269Z,7.40
2023-09-30T19:53:48.071Z,6.90
2023-09-30T19:54:21.590Z,6.70
2023-09-30T19:55:50.327Z,6.10
2023-09-30T19:56:25.116Z,6.70
2023-09-30T19:56:58.999Z,6.30
2023-09-30T19:57:33.934Z,7.40
2023-09-30T19:58:08.312Z,8.20
2023-09-30T19:59:33.149Z,5.90
2023-09-30T20:00:10.648Z,7.90
2023-09-30T20:00:45.049Z,7.50
2023-09-30T20:01:21.507Z,6.90
2023-09-30T20:01:56.424Z,7.40
2023-09-30T20:03:13.456Z,7.30
2023-09-30T20:03:48.018Z,6.20
2023-09-30T20:04:23.124Z,6.10
2023-09-30T20:04:57.978Z,6.40
2023-09-30T20:05:31.647Z,7.60
2023-09-30T20:06:55.470Z,7.40
2023-09-30T20:07:29.899Z,7.00
2023-09-30T20:08:05.712Z,6.60
2023-09-30T20:08:39.399Z,5.50
2023-09-30T20:09:14.226Z,6.20
2023-09-30T20:10:42.173Z,5.80
2023-09-30T20:11:29.049Z,7.40
2023-09-30T20:12:04.640Z,6.30
2023-09-30T20:12:38.748Z,5.30
2023-09-30T20:14:14.491Z,6.80
2023-09-30T20:14:48.842Z,6.10
2023-09-30T20:15:22.782Z,6.40
2023-09-30T20:15:57.119Z,6.90
2023-09-30T20:16:31.316Z,6.40
2023-09-30T20:17:57.475Z,6.40
2023-09-30T20:18:32.929Z,6.40
2023-09-30T20:19:07.035Z,6.80
2023-09-30T20:19:40.993Z,6.70
2023-09-30T20:20:17.975Z,7.20
2023-09-30T20:21:39.950Z,7.10
2023-09-30T20:22:13.830Z,6.30
2023-09-30T20:22:48.116Z,7.60
2023-09-30T20:23:22.384Z,5.60
2023-09-30T20:23:56.463Z,6.80
2023-09-30T20:25:17.484Z,6.30
2023-09-30T20:25:51.324Z,6.40
2023-09-30T20:26:27.253Z,6.10
2023-09-30T20:27:01.494Z,6.60
2023-09-30T20:27:35.690Z,6.30
2023-09-30T20:29:00.397Z,5.80
2023-09-30T20:29:35.915Z,6.90
2023-09-30T20:30:10.989Z,6.70
2023-09-30T20:30:45.227Z,6.00
2023-09-30T20:31:22.671Z,8.00
2023-09-30T20:32:47.262Z,7.00
2023-09-30T20:33:22.420Z,8.10
2023-09-30T20:33:56.749Z,6.30
2023-09-30T20:34:30.765Z,7.40
2023-09-30T20:35:06.413Z,6.70
2023-09-30T20:36:29.161Z,6.10
2023-09-30T20:37:04.969Z,6.30
2023-09-30T20:37:39.636Z,6.10
2023-09-30T20:38:13.301Z,6.30
2023-09-30T20:38:47.130Z,6.00
2023-09-30T20:40:15.314Z,7.30
2023-09-30T20:40:49.524Z,7.90
2023-09-30T20:41:23.575Z,6.50
2023-09-30T20:41:57.680Z,6.30
2023-09-30T20:42:31.671Z,7.60
2023-09-30T20:43:57.921Z,6.40
2023-09-30T20:44:31.871Z,6.80
2023-09-30T20:45:06.864Z,8.20
2023-09-30T20:45:41.255Z,7.00
2023-09-30T20:46:16.597Z,6.20
2023-09-30T20:47:39.040Z,7.20
2023-09-30T20:48:12.720Z,7.60
2023-09-30T20:48:47.193Z,7.90
2023-09-30T20:49:20.859Z,6.70
2023-09-30T20:49:54.665Z,6.40
2023-09-30T20:51:20.372Z,6.10
2023-09-30T20:51:54.498Z,7.00
2023-09-30T20:52:29.219Z,7.40
2023-09-30T20:53:03.909Z,5.60
2023-09-30T20:53:37.914Z,6.00
2023-09-30T20:55:00.600Z,5.80
2023-09-30T20:55:37.977Z,7.50
2023-09-30T20:56:12.532Z,6.50
2023-09-30T20:56:46.805Z,6.00
2023-09-30T20:57:21.079Z,6.10
2023-09-30T20:58:41.033Z,6.90
2023-09-30T20:59:15.611Z,6.90
2023-09-30T20:59:50.336Z,6.30
2023-09-30T21:00:25.594Z,5.60
2023-09-30T21:00:59.759Z,7.30
2023-09-30T21:02:25.171Z,7.60
2023-09-30T21:02:59.217Z,6.80
2023-09-30T21:03:33.390Z,6.70
2023-09-30T21:04:08.227Z,6.10
2023-09-30T21:04:42.905Z,6.40
2023-09-30T21:06:09.740Z,6.50
2023-09-30T21:06:46.140Z,7.20
2023-09-30T21:07:20.487Z,6.30
2023-09-30T21:07:54.639Z,7.00
2023-09-30T21:08:28.983Z,7.10
2023-09-30T21:09:51.063Z,6.90
2023-09-30T21:10:25.676Z,6.30
2023-09-30T21:11:00.095Z,6.20
2023-09-30T21:11:35.349Z,7.80
2023-09-30T21:12:09.148Z,6.50
2023-09-30T21:13:32.546Z,7.90
2023-09-30T21:14:06.964Z,6.40
2023-09-30T21:14:41.336Z,6.10
2023-09-30T21:15:15.097Z,6.00
2023-09-30T21:15:49.527Z,6.60
2023-09-30T21:17:13.432Z,5.50
2023-09-30T21:17:47.802Z,7.20
2023-09-30T21:18:22.193Z,5.40
2023-09-30T21:18:56.001Z,6.10
2023-09-30T21:19:29.851Z,6.10
2023-09-30T21:20:55.215Z,5.10
2023-09-30T21:21:30.537Z,6.30
2023-09-30T21:22:04.399Z,5.90
2023-09-30T21:22:38.873Z,7.70
2023-09-30T21:23:13.325Z,5.80
2023-09-30T21:24:38.045Z,6.50
2023-09-30T21:25:11.545Z,6.00
2023-09-30T21:25:45.933Z,6.00
2023-09-30T21:26:20.333Z,5.50
2023-09-30T21:26:54.314Z,6.10
2023-09-30T21:28:19.310Z,6.50
2023-09-30T21:28:53.329Z,7.00
2023-09-30T21:29:27.623Z,6.00
2023-09-30T21:30:01.778Z,6.90
2023-09-30T21:30:38.463Z,4.60
2023-09-30T21:32:08.248Z,5.50
2023-09-30T21:32:41.951Z,5.90
2023-09-30T21:33:16.281Z,6.00
2023-09-30T21:33:51.067Z,5.30
2023-09-30T21:34:25.161Z,5.90
2023-09-30T21:35:42.444Z,5.90
2023-09-30T21:36:17.432Z,6.60
2023-09-30T21:36:51.405Z,6.70
2023-09-30T21:37:25.408Z,5.60
2023-09-30T21:37:59.578Z,6.10
2023-09-30T21:39:24.615Z,6.70
2023-09-30T21:39:58.509Z,5.90
2023-09-30T21:40:32.404Z,6.10
2023-09-30T21:41:12.791Z,5.80
2023-09-30T21:41:46.789Z,6.10
2023-09-30T21:43:04.870Z,5.70
2023-09-30T21:43:38.544Z,6.40
2023-09-30T21:44:14.035Z,6.20
2023-09-30T21:44:48.069Z,7.60
2023-09-30T21:45:21.856Z,7.50
2023-09-30T21:46:47.234Z,5.40
2023-09-30T21:47:21.367Z,5.00
2023-09-30T21:47:55.273Z,5.50
2023-09-30T21:48:30.801Z,6.00
2023-09-30T21:49:04.608Z,6.60
2023-09-30T21:50:25.122Z,5.80
2023-09-30T21:51:00.096Z,6.10
2023-09-30T21:51:33.926Z,5.70
2023-09-30T21:52:08.573Z,5.80
2023-09-30T21:52:42.309Z,5.40
2023-09-30T21:54:06.167Z,6.30
2023-09-30T21:54:39.783Z,6.20
2023-09-30T21:55:13.576Z,6.50
2023-09-30T21:55:47.018Z,5.30
2023-09-30T21:56:20.856Z,5.60
2023-09-30T21:57:46.536Z,6.60
2023-09-30T21:58:20.708Z,6.60
2023-09-30T21:58:54.813Z,5.90
2023-09-30T21:59:28.573Z,5.90
2023-09-30T22:00:02.268Z,6.20
2023-09-30T22:01:33.697Z,6.80
2023-09-30T22:02:07.899Z,5.70
2023-09-30T22:02:42.496Z,6.00
2023-09-30T22:03:22.699Z,5.30
2023-09-30T22:05:07.573Z,7.40
2023-09-30T22:05:51.473Z,5.60
2023-09-30T22:06:25.602Z,6.10
2023-09-30T22:07:00.466Z,5.30
2023-09-30T22:07:35.536Z,5.50
2023-09-30T22:08:52.427Z,5.50
2023-09-30T22:09:26.406Z,5.80
2023-09-30T22:10:00.423Z,5.20
2023-09-30T22:10:34.785Z,6.30
2023-09-30T22:11:08.702Z,5.30
2023-09-30T22:12:32.837Z,5.70
2023-09-30T22:13:06.487Z,5.50
2023-09-30T22:13:40.046Z,6.10
2023-09-30T22:14:13.897Z,6.00
2023-09-30T22:14:47.425Z,5.90
2023-09-30T22:16:13.272Z,5.00
2023-09-30T22:16:47.154Z,5.30
2023-09-30T22:17:22.559Z,6.50
2023-09-30T22:17:56.550Z,5.80
2023-09-30T22:18:30.097Z,5.70
2023-09-30T22:19:54.046Z,5.30
2023-09-30T22:20:28.571Z,5.60
2023-09-30T22:21:02.803Z,6.40
2023-09-30T22:21:36.664Z,5.50
2023-09-30T22:22:13.297Z,6.10